createdAt,value
2023-02-05T00:00:18.916Z,4.07
2023-02-05T00:02:47.288Z,4.07
2023-02-05T00:05:15.584Z,5.07
2023-02-05T00:07:43.806Z,4.87
2023-02-05T00:10:13.355Z,4.10
2023-02-05T00:12:41.500Z,4.83
2023-02-05T00:15:10.851Z,9.40
2023-02-05T00:17:38.895Z,14.37
2023-02-05T00:20:08.778Z,8.37
2023-02-05T00:22:37.023Z,6.93
2023-02-05T00:25:06.122Z,6.47
2023-02-05T00:27:35.618Z,6.47
2023-02-05T00:30:03.813Z,5.87
2023-02-05T00:32:31.956Z,5.60
2023-02-05T00:35:00.020Z,6.17
2023-02-05T00:37:28.090Z,5.23
2023-02-05T00:39:56.192Z,6.03
2023-02-05T00:42:24.426Z,6.37
2023-02-05T00:44:53.898Z,6.50
2023-02-05T00:47:22.112Z,6.13
2023-02-05T00:49:50.281Z,5.73
2023-02-05T00:52:18.605Z,5.70
2023-02-05T00:54:46.876Z,5.63
2023-02-05T00:57:14.881Z,6.37
2023-02-05T00:59:43.010Z,5.70
2023-02-05T01:02:12.481Z,5.30
2023-02-05T01:04:40.673Z,5.57
2023-02-05T01:07:08.830Z,5.57
2023-02-05T01:09:36.901Z,5.83
2023-02-05T01:12:05.651Z,4.63
2023-02-05T01:14:33.737Z,5.10
2023-02-05T01:17:01.954Z,5.37
2023-02-05T01:19:31.489Z,6.07
2023-02-05T01:21:59.519Z,5.03
2023-02-05T01:24:27.674Z,4.67
2023-02-05T01:26:58.513Z,5.47
2023-02-05T01:29:29.269Z,5.47
2023-02-05T01:31:57.935Z,5.00
2023-02-05T01:34:26.023Z,5.63
2023-02-05T01:36:55.373Z,5.20
2023-02-05T01:39:23.414Z,4.27
2023-02-05T01:41:51.574Z,4.70
2023-02-05T01:44:24.555Z,5.37
2023-02-05T01:46:54.892Z,4.83
2023-02-05T01:49:27.649Z,5.60
2023-02-05T01:52:01.214Z,4.67
2023-02-05T01:54:32.584Z,5.00
2023-02-05T01:57:04.637Z,4.23
2023-02-05T01:59:36.773Z,5.13
2023-02-05T02:02:06.414Z,4.37
2023-02-05T02:04:40.197Z,4.23
2023-02-05T02:07:13.083Z,4.60
2023-02-05T02:09:45.540Z,4.60
2023-02-05T02:12:16.873Z,4.43
2023-02-05T02:14:50.270Z,4.00
2023-02-05T02:17:19.431Z,4.33
2023-02-05T02:19:55.511Z,4.17
2023-02-05T02:22:49.580Z,4.87
2023-02-05T02:25:53.470Z,4.60
2023-02-05T02:28:29.316Z,5.00
2023-02-05T02:31:03.462Z,4.67
2023-02-05T02:33:37.730Z,4.67
2023-02-05T02:36:13.061Z,3.77
2023-02-05T02:38:45.505Z,4.53
2023-02-05T02:41:18.230Z,4.40
2023-02-05T02:43:53.291Z,3.30
2023-02-05T02:46:25.764Z,4.30
2023-02-05T02:48:58.297Z,3.70
2023-02-05T02:51:29.572Z,4.07
2023-02-05T02:54:00.275Z,4.40
2023-02-05T02:56:31.104Z,4.80
2023-02-05T02:59:06.186Z,3.50
2023-02-05T03:01:39.795Z,4.60
2023-02-05T03:04:13.450Z,4.30
2023-02-05T03:06:43.886Z,4.30
2023-02-05T03:09:19.256Z,4.17
2023-02-05T03:11:47.229Z,3.93
2023-02-05T03:14:16.519Z,3.40
2023-02-05T03:16:44.557Z,3.93
2023-02-05T03:19:12.730Z,4.10
2023-02-05T03:21:44.587Z,4.07
2023-02-05T03:24:13.917Z,3.60
2023-02-05T03:26:42.104Z,3.23
2023-02-05T03:29:14.427Z,3.87
2023-02-05T03:31:57.557Z,3.90
2023-02-05T03:34:40.668Z,3.77
2023-02-05T03:37:17.692Z,3.90
2023-02-05T03:39:59.300Z,4.00
2023-02-05T03:42:38.175Z,3.67
2023-02-05T03:45:24.047Z,3.30
2023-02-05T03:48:14.325Z,4.13
2023-02-05T03:50:51.060Z,3.57
2023-02-05T03:53:25.326Z,3.73
2023-02-05T03:56:02.271Z,4.13
2023-02-05T03:58:35.742Z,3.50
2023-02-05T04:01:04.599Z,3.23
2023-02-05T04:03:34.274Z,3.80
2023-02-05T04:06:02.254Z,3.30
2023-02-05T04:08:30.533Z,4.30
2023-02-05T04:10:58.583Z,3.87
2023-02-05T04:13:26.675Z,3.80
2023-02-05T04:15:54.642Z,3.20
2023-02-05T04:18:22.749Z,3.30
2023-02-05T04:20:52.146Z,4.10
2023-02-05T04:23:20.286Z,3.90
2023-02-05T04:25:48.256Z,3.70
2023-02-05T04:28:16.275Z,3.70
2023-02-05T04:30:44.284Z,3.70
2023-02-05T04:33:12.298Z,3.33
2023-02-05T04:35:40.223Z,3.57
2023-02-05T04:38:09.616Z,3.10
2023-02-05T04:40:37.673Z,4.13
2023-02-05T04:43:05.931Z,3.50
2023-02-05T04:45:34.331Z,3.17
2023-02-05T04:48:02.521Z,3.20
2023-02-05T04:50:30.531Z,3.00
2023-02-05T04:52:58.582Z,3.03
2023-02-05T04:55:27.906Z,3.77
2023-02-05T04:57:55.973Z,3.03
2023-02-05T05:00:24.249Z,3.83
2023-02-05T05:02:52.853Z,3.13
2023-02-05T05:05:20.925Z,2.97
2023-02-05T05:07:48.949Z,2.50
2023-02-05T05:10:17.021Z,3.77
2023-02-05T05:12:46.378Z,3.70
2023-02-05T05:15:14.343Z,3.60
2023-02-05T05:17:42.429Z,3.40
2023-02-05T05:20:11.946Z,3.30
2023-02-05T05:22:39.942Z,3.03
2023-02-05T05:25:08.522Z,2.80
2023-02-05T05:27:36.530Z,3.30
2023-02-05T05:30:06.703Z,2.97
2023-02-05T05:32:34.795Z,3.30
2023-02-05T05:35:02.818Z,2.40
2023-02-05T05:37:30.901Z,2.83
2023-02-05T05:40:16.489Z,2.77
2023-02-05T05:43:02.193Z,2.70
2023-02-05T05:45:31.724Z,2.87
2023-02-05T05:48:00.011Z,2.90
2023-02-05T05:50:28.115Z,2.80
2023-02-05T05:52:56.080Z,3.07
2023-02-05T05:55:24.015Z,2.23
2023-02-05T05:57:52.018Z,2.60
2023-02-05T06:00:20.849Z,2.70
2023-02-05T06:02:50.278Z,2.43
2023-02-05T06:05:18.366Z,3.10
2023-02-05T06:07:46.324Z,2.50
2023-02-05T06:10:14.444Z,2.90
2023-02-05T06:12:42.470Z,2.97
2023-02-05T06:15:11.569Z,2.70
2023-02-05T06:17:39.531Z,2.90
2023-02-05T06:20:10.532Z,2.70
2023-02-05T06:22:38.484Z,3.03
2023-02-05T06:25:07.479Z,3.07
2023-02-05T06:27:35.468Z,2.87
2023-02-05T06:30:04.149Z,3.20
2023-02-05T06:32:32.120Z,2.87
2023-02-05T06:35:00.165Z,2.17
2023-02-05T06:37:46.125Z,2.37
2023-02-05T06:40:18.064Z,2.73
2023-02-05T06:42:46.524Z,2.30
2023-02-05T06:45:14.498Z,2.70
2023-02-05T06:47:42.474Z,2.23
2023-02-05T06:50:11.358Z,2.37
2023-02-05T06:52:40.663Z,2.50
2023-02-05T06:55:09.261Z,2.40
2023-02-05T06:57:37.408Z,2.67
2023-02-05T07:00:07.241Z,2.50
2023-02-05T07:02:35.323Z,2.70
2023-02-05T07:05:03.413Z,2.90
2023-02-05T07:07:33.139Z,2.53
2023-02-05T07:10:03.005Z,2.63
2023-02-05T07:12:31.316Z,2.33
2023-02-05T07:14:59.349Z,2.80
2023-02-05T07:17:27.459Z,2.40
2023-02-05T07:19:55.466Z,3.30
2023-02-05T07:22:23.436Z,2.20
2023-02-05T07:24:51.511Z,2.90
2023-02-05T07:27:20.881Z,2.90
2023-02-05T07:29:48.970Z,2.40
2023-02-05T07:32:16.963Z,2.63
2023-02-05T07:34:44.980Z,2.80
2023-02-05T07:37:14.167Z,2.70
2023-02-05T07:39:42.700Z,2.63
2023-02-05T07:42:10.698Z,2.40
2023-02-05T07:44:40.022Z,2.20
2023-02-05T07:47:08.011Z,2.50
2023-02-05T07:49:35.957Z,4.00
2023-02-05T07:52:04.172Z,2.57
2023-02-05T07:54:32.156Z,2.43
2023-02-05T07:57:00.588Z,2.43
2023-02-05T07:59:29.069Z,2.27
2023-02-05T08:01:58.351Z,2.33
2023-02-05T08:04:26.341Z,2.30
2023-02-05T08:06:54.357Z,2.40
2023-02-05T08:09:22.306Z,2.50
2023-02-05T08:11:50.897Z,2.60
2023-02-05T08:14:18.836Z,2.37
2023-02-05T08:16:46.814Z,2.07
2023-02-05T08:19:18.652Z,2.87
2023-02-05T08:21:46.749Z,2.37
2023-02-05T08:24:14.735Z,2.10
2023-02-05T08:26:42.780Z,2.27
2023-02-05T08:29:12.199Z,2.30
2023-02-05T08:31:40.424Z,2.43
2023-02-05T08:34:08.538Z,1.93
2023-02-05T08:36:37.866Z,3.00
2023-02-05T08:39:05.937Z,4.40
2023-02-05T08:41:33.964Z,5.07
2023-02-05T08:44:01.903Z,6.03
2023-02-05T08:46:40.384Z,6.27
2023-02-05T08:49:17.028Z,6.47
2023-02-05T08:51:46.594Z,7.50
2023-02-05T08:54:15.369Z,7.47
2023-02-05T08:56:45.081Z,6.23
2023-02-05T08:59:13.543Z,6.30
2023-02-05T09:01:42.840Z,10.13
2023-02-05T09:04:14.481Z,7.20
2023-02-05T09:06:43.017Z,6.10
2023-02-05T09:09:13.974Z,6.70
2023-02-05T09:11:42.518Z,5.73
2023-02-05T09:14:11.066Z,6.57
2023-02-05T09:16:39.245Z,4.20
2023-02-05T09:19:07.384Z,4.57
2023-02-05T09:21:35.637Z,3.03
2023-02-05T09:24:03.818Z,3.27
2023-02-05T09:26:33.651Z,2.80
2023-02-05T09:29:01.734Z,2.30
2023-02-05T09:31:29.997Z,2.50
2023-02-05T09:33:58.090Z,2.33
2023-02-05T09:36:26.141Z,1.97
2023-02-05T09:39:11.860Z,1.93
2023-02-05T09:41:57.644Z,2.40
2023-02-05T09:44:44.495Z,1.83
2023-02-05T09:47:22.029Z,2.10
2023-02-05T09:49:58.445Z,1.37
2023-02-05T09:52:31.316Z,1.53
2023-02-05T09:55:04.861Z,1.90
2023-02-05T09:57:38.330Z,1.33
2023-02-05T10:00:15.801Z,1.30
2023-02-05T10:02:52.035Z,1.50
2023-02-05T10:05:25.984Z,1.50
2023-02-05T10:08:05.675Z,1.77
2023-02-05T10:10:37.913Z,1.60
2023-02-05T10:13:30.683Z,2.40
2023-02-05T10:16:31.446Z,1.27
2023-02-05T10:19:22.849Z,1.40
2023-02-05T10:22:11.678Z,1.60
2023-02-05T10:25:02.619Z,1.30
2023-02-05T10:27:41.344Z,1.47
2023-02-05T10:30:20.299Z,1.50
2023-02-05T10:32:58.529Z,1.43
2023-02-05T10:35:37.308Z,1.57
2023-02-05T10:38:11.769Z,1.43
2023-02-05T10:40:43.977Z,1.53
2023-02-05T10:43:24.771Z,1.30
2023-02-05T10:45:56.458Z,1.50
2023-02-05T10:48:38.386Z,1.37
2023-02-05T10:51:09.335Z,1.60
2023-02-05T10:53:37.520Z,1.40
2023-02-05T10:56:07.612Z,1.20
2023-02-05T10:58:44.529Z,1.90
2023-02-05T11:01:18.257Z,1.80
2023-02-05T11:03:54.953Z,1.50
2023-02-05T11:06:25.341Z,1.60
2023-02-05T11:08:53.900Z,1.50
2023-02-05T11:11:25.816Z,1.80
2023-02-05T11:13:58.624Z,0.97
2023-02-05T11:16:38.745Z,1.50
2023-02-05T11:19:21.059Z,1.33
2023-02-05T11:21:53.583Z,1.33
2023-02-05T11:24:30.866Z,1.40
2023-02-05T11:27:27.148Z,1.60
2023-02-05T11:29:56.347Z,1.70
2023-02-05T11:32:35.963Z,1.60
2023-02-05T11:35:20.705Z,1.30
2023-02-05T11:37:59.933Z,1.63
2023-02-05T11:40:32.082Z,1.80
2023-02-05T11:43:05.837Z,1.10
2023-02-05T11:45:38.744Z,2.23
2023-02-05T11:48:27.765Z,1.80
2023-02-05T11:50:55.878Z,2.10
2023-02-05T11:53:24.609Z,1.93
2023-02-05T11:55:59.971Z,2.83
2023-02-05T11:58:36.603Z,1.90
2023-02-05T12:01:21.341Z,2.20
2023-02-05T12:04:01.142Z,1.77
2023-02-05T12:06:36.839Z,1.30
2023-02-05T12:09:05.743Z,2.17
2023-02-05T12:12:06.416Z,2.73
2023-02-05T12:14:44.194Z,1.60
2023-02-05T12:17:34.684Z,2.10
2023-02-05T12:20:20.307Z,1.90
2023-02-05T12:23:16.749Z,1.60
2023-02-05T12:25:54.262Z,1.90
2023-02-05T12:28:34.020Z,2.13
2023-02-05T12:31:19.489Z,1.50
2023-02-05T12:34:04.425Z,1.60
2023-02-05T12:37:01.077Z,1.60
2023-02-05T12:39:46.509Z,1.63
2023-02-05T12:42:27.330Z,1.63
2023-02-05T12:45:10.037Z,2.33
2023-02-05T12:47:55.644Z,2.00
2023-02-05T12:51:08.603Z,2.07
2023-02-05T12:53:56.303Z,2.63
2023-02-05T12:56:44.899Z,2.60
2023-02-05T12:59:16.739Z,2.60
2023-02-05T13:01:51.978Z,1.90
2023-02-05T13:04:29.612Z,2.13
2023-02-05T13:07:05.569Z,2.57
2023-02-05T13:09:46.927Z,2.40
2023-02-05T13:12:18.244Z,2.40
2023-02-05T13:14:56.439Z,2.17
2023-02-05T13:17:28.195Z,1.73
2023-02-05T13:20:00.824Z,2.53
2023-02-05T13:22:50.719Z,2.70
2023-02-05T13:25:45.726Z,2.10
2023-02-05T13:28:43.484Z,1.60
2023-02-05T13:31:22.069Z,1.60
2023-02-05T13:33:51.397Z,1.57
2023-02-05T13:37:11.046Z,1.83
2023-02-05T13:40:17.933Z,2.47
2023-02-05T13:43:24.615Z,2.00
2023-02-05T13:46:32.926Z,1.97
2023-02-05T13:49:42.152Z,1.60
2023-02-05T13:52:24.343Z,2.60
2023-02-05T13:55:28.041Z,1.37
2023-02-05T13:58:20.482Z,1.60
2023-02-05T14:00:59.950Z,1.90
2023-02-05T14:03:36.038Z,2.00
2023-02-05T14:06:24.273Z,2.00
2023-02-05T14:09:00.761Z,1.73
2023-02-05T14:11:29.562Z,1.40
2023-02-05T14:14:26.896Z,2.07
2023-02-05T14:16:57.796Z,2.00
2023-02-05T14:19:56.067Z,1.70
2023-02-05T14:22:42.559Z,1.90
2023-02-05T14:26:05.876Z,1.90
2023-02-05T14:28:53.336Z,1.70
2023-02-05T14:31:49.601Z,2.30
2023-02-05T14:35:00.535Z,2.53
2023-02-05T14:37:37.508Z,1.80
2023-02-05T14:40:34.961Z,2.10
2023-02-05T14:43:15.341Z,1.77
2023-02-05T14:45:50.410Z,1.73
2023-02-05T14:48:26.080Z,2.50
2023-02-05T14:51:10.292Z,1.80
2023-02-05T14:53:39.703Z,2.00
2023-02-05T14:56:08.739Z,1.57
2023-02-05T14:58:40.599Z,2.47
2023-02-05T15:01:44.980Z,2.20
2023-02-05T15:04:30.110Z,2.13
2023-02-05T15:07:02.549Z,1.60
2023-02-05T15:09:41.456Z,1.40
2023-02-05T15:12:34.208Z,2.00
2023-02-05T15:15:30.631Z,1.60
2023-02-05T15:18:05.910Z,1.60
2023-02-05T15:20:37.975Z,1.57
2023-02-05T15:23:19.581Z,2.37
2023-02-05T15:25:56.344Z,1.60
2023-02-05T15:28:36.006Z,1.50
2023-02-05T15:31:22.643Z,1.43
2023-02-05T15:34:07.956Z,1.70
2023-02-05T15:36:42.701Z,1.60
2023-02-05T15:39:24.154Z,1.70
2023-02-05T15:41:56.475Z,1.33
2023-02-05T15:44:30.493Z,1.80
2023-02-05T15:47:03.674Z,2.27
2023-02-05T15:49:37.623Z,1.23
2023-02-05T15:52:06.633Z,1.23
2023-02-05T15:54:37.912Z,1.80
2023-02-05T15:57:08.706Z,1.63
2023-02-05T15:59:36.726Z,1.60
2023-02-05T16:02:14.933Z,1.83
2023-02-05T16:04:43.053Z,1.80
2023-02-05T16:07:22.027Z,1.90
2023-02-05T16:09:55.964Z,1.43
2023-02-05T16:12:24.382Z,1.93
2023-02-05T16:15:03.093Z,1.50
2023-02-05T16:17:38.879Z,1.60
2023-02-05T16:20:20.781Z,1.60
2023-02-05T16:22:55.240Z,1.87
2023-02-05T16:25:42.048Z,2.30
2023-02-05T16:28:18.566Z,1.80
2023-02-05T16:30:49.029Z,2.10
2023-02-05T16:33:28.290Z,1.67
2023-02-05T16:35:58.057Z,1.37
2023-02-05T16:38:28.106Z,1.47
2023-02-05T16:41:00.419Z,1.23
2023-02-05T16:43:33.000Z,1.30
2023-02-05T16:46:31.691Z,1.40
2023-02-05T16:49:01.230Z,1.73
2023-02-05T16:51:55.217Z,1.67
2023-02-05T16:54:33.762Z,1.70
2023-02-05T16:57:12.966Z,2.10
2023-02-05T16:59:52.090Z,1.50
2023-02-05T17:02:32.355Z,1.30
2023-02-05T17:05:02.063Z,1.80
2023-02-05T17:07:31.196Z,3.13
2023-02-05T17:10:18.036Z,1.73
2023-02-05T17:13:01.054Z,1.27
2023-02-05T17:15:42.485Z,1.60
2023-02-05T17:18:23.954Z,1.70
2023-02-05T17:20:52.065Z,1.13
2023-02-05T17:23:20.141Z,1.70
2023-02-05T17:25:55.141Z,1.70
2023-02-05T17:28:27.540Z,1.50
2023-02-05T17:30:58.608Z,1.60
2023-02-05T17:33:30.488Z,2.17
2023-02-05T17:35:58.436Z,1.53
2023-02-05T17:38:26.499Z,1.53
2023-02-05T17:41:14.574Z,1.70
2023-02-05T17:43:44.031Z,1.90
2023-02-05T17:46:14.688Z,2.27
2023-02-05T17:48:44.482Z,2.03
2023-02-05T17:51:19.693Z,2.10
2023-02-05T17:53:47.868Z,2.03
2023-02-05T17:56:16.037Z,2.13
2023-02-05T17:58:45.347Z,2.40
2023-02-05T18:01:13.454Z,2.13
2023-02-05T18:03:41.426Z,1.70
2023-02-05T18:06:11.478Z,2.10
2023-02-05T18:08:40.576Z,2.30
2023-02-05T18:11:09.015Z,2.43
2023-02-05T18:13:37.394Z,2.53
2023-02-05T18:16:07.223Z,1.80
2023-02-05T18:18:38.729Z,1.93
2023-02-05T18:21:07.854Z,2.37
2023-02-05T18:23:35.987Z,2.23
2023-02-05T18:26:06.236Z,2.30
2023-02-05T18:28:36.111Z,1.77
2023-02-05T18:31:08.246Z,1.83
2023-02-05T18:33:37.139Z,1.90
2023-02-05T18:36:08.693Z,2.07
2023-02-05T18:38:37.766Z,1.77
2023-02-05T18:41:08.210Z,1.47
2023-02-05T18:43:36.748Z,1.63
2023-02-05T18:46:12.169Z,1.47
2023-02-05T18:48:41.577Z,1.80
2023-02-05T18:51:12.791Z,2.13
2023-02-05T18:53:42.965Z,2.03
2023-02-05T18:56:15.311Z,1.67
2023-02-05T18:58:44.321Z,1.40
2023-02-05T19:01:15.989Z,1.73
2023-02-05T19:03:44.768Z,1.57
2023-02-05T19:06:16.732Z,1.90
2023-02-05T19:08:45.435Z,2.00
2023-02-05T19:11:16.002Z,1.70
2023-02-05T19:13:44.137Z,1.60
2023-02-05T19:16:16.340Z,1.93
2023-02-05T19:18:46.659Z,1.67
2023-02-05T19:21:17.660Z,1.90
2023-02-05T19:23:49.654Z,1.60
2023-02-05T19:26:21.382Z,1.40
2023-02-05T19:28:55.859Z,1.90
2023-02-05T19:31:27.339Z,1.60
2023-02-05T19:33:55.899Z,1.40
2023-02-05T19:36:24.932Z,1.73
2023-02-05T19:38:53.529Z,1.40
2023-02-05T19:41:26.125Z,1.67
2023-02-05T19:43:56.599Z,1.53
2023-02-05T19:46:27.850Z,2.10
2023-02-05T19:48:57.467Z,1.70
2023-02-05T19:51:25.441Z,1.57
2023-02-05T19:53:53.520Z,2.10
2023-02-05T19:56:23.426Z,2.30
2023-02-05T19:58:54.540Z,2.17
2023-02-05T20:01:27.636Z,1.40
2023-02-05T20:03:58.452Z,2.10
2023-02-05T20:06:30.023Z,1.83
2023-02-05T20:08:58.284Z,1.80
2023-02-05T20:11:26.234Z,1.63
2023-02-05T20:13:54.537Z,1.10
2023-02-05T20:16:24.988Z,1.67
2023-02-05T20:18:56.272Z,1.93
2023-02-05T20:21:25.113Z,2.13
2023-02-05T20:23:53.409Z,1.83
2023-02-05T20:26:22.372Z,1.40
2023-02-05T20:29:11.393Z,1.80
2023-02-05T20:31:43.618Z,1.23
2023-02-05T20:34:18.004Z,2.00
2023-02-05T20:36:46.865Z,1.70
2023-02-05T20:39:17.116Z,1.53
2023-02-05T20:41:45.351Z,1.90
2023-02-05T20:44:13.534Z,1.70
2023-02-05T20:46:43.177Z,1.53
2023-02-05T20:49:12.181Z,1.40
2023-02-05T20:51:40.518Z,1.80
2023-02-05T20:54:08.853Z,1.70
2023-02-05T20:56:37.158Z,1.47
2023-02-05T20:59:07.936Z,1.90
2023-02-05T21:01:37.740Z,1.60
2023-02-05T21:04:09.916Z,1.53
2023-02-05T21:06:40.541Z,1.43
2023-02-05T21:09:10.197Z,1.60
2023-02-05T21:11:39.190Z,1.73
2023-02-05T21:14:08.329Z,1.57
2023-02-05T21:16:37.347Z,1.60
2023-02-05T21:19:08.615Z,1.50
2023-02-05T21:21:38.002Z,1.53
2023-02-05T21:24:09.136Z,1.60
2023-02-05T21:26:39.999Z,2.30
2023-02-05T21:29:11.656Z,1.40
2023-02-05T21:31:44.643Z,1.80
2023-02-05T21:34:16.788Z,1.87
2023-02-05T21:36:45.246Z,1.77
2023-02-05T21:39:15.615Z,1.83
2023-02-05T21:41:44.737Z,1.70
2023-02-05T21:44:13.303Z,1.93
2023-02-05T21:46:41.814Z,1.53
2023-02-05T21:49:11.293Z,1.43
2023-02-05T21:51:42.295Z,1.30
2023-02-05T21:54:11.929Z,1.50
2023-02-05T21:56:42.463Z,1.30
2023-02-05T21:59:12.018Z,1.13
2023-02-05T22:01:40.769Z,2.30
2023-02-05T22:04:12.360Z,1.70
2023-02-05T22:06:42.421Z,1.70
2023-02-05T22:09:15.253Z,1.47
2023-02-05T22:11:43.535Z,1.83
2023-02-05T22:14:12.158Z,1.50
2023-02-05T22:16:40.636Z,1.33
2023-02-05T22:19:09.557Z,1.70
2023-02-05T22:21:41.754Z,1.90
2023-02-05T22:24:15.741Z,1.87
2023-02-05T22:26:44.187Z,1.30
2023-02-05T22:29:16.194Z,1.93
2023-02-05T22:31:45.186Z,1.60
2023-02-05T22:34:13.632Z,1.40
2023-02-05T22:36:43.549Z,1.30
2023-02-05T22:39:11.849Z,1.67
2023-02-05T22:41:42.193Z,1.20
2023-02-05T22:44:12.558Z,1.77
2023-02-05T22:46:43.419Z,1.27
2023-02-05T22:49:15.053Z,1.63
2023-02-05T22:51:45.516Z,1.67
2023-02-05T22:54:15.403Z,1.70
2023-02-05T22:56:43.669Z,2.10
2023-02-05T22:59:11.717Z,1.60
2023-02-05T23:01:40.445Z,1.33
2023-02-05T23:04:10.323Z,0.90
2023-02-05T23:06:41.331Z,1.07
2023-02-05T23:09:13.724Z,1.23
2023-02-05T23:11:42.128Z,1.47
2023-02-05T23:14:11.736Z,1.27
2023-02-05T23:16:43.249Z,1.23
2023-02-05T23:19:15.816Z,1.20
2023-02-05T23:21:43.847Z,1.73
2023-02-05T23:24:13.783Z,1.20
2023-02-05T23:26:45.598Z,1.40
2023-02-05T23:29:16.408Z,1.63
2023-02-05T23:31:44.905Z,1.20
2023-02-05T23:34:13.370Z,1.67
2023-02-05T23:36:41.502Z,1.67
2023-02-05T23:39:09.586Z,2.10
2023-02-05T23:41:39.875Z,1.80
2023-02-05T23:44:12.414Z,1.37
2023-02-05T23:46:40.934Z,1.20
2023-02-05T23:49:09.157Z,2.17
2023-02-05T23:51:37.432Z,2.50
2023-02-05T23:54:06.951Z,2.80
2023-02-05T23:56:35.415Z,2.00
2023-02-05T23:59:05.777Z,1.83
